Stunt Ranch Reserve, Santa Monica Mtns, California Weather observations

Data are for 10 minute period ending at time listed.
 Day   Time   Solar   Ave.   Ave.  Ave.  Vector  Max.   Baro.   Total    
  of    of     Rad.   Air    Rel.  Wind   Wind   Wind  Press.  Precip.   
Year   Day            Temp.  Hum.  Speed  Dir.   Gust                    
2015   (PST)  Kw/m2    F      %     mph   deg.    mph    mb.     in.     
-------------------------------------------------------------------------
  88    2:10   0.00   62.9    32    1.2   206     2.8   970.2    0.00 
  88    2:20   0.00   61.6    35    0.3   300     1.1   970.2    0.00 
  88    2:30   0.00   61.1    35    0.2   291     1.2   970.2    0.00 
  88    2:40   0.00   59.9    36    0.2     2     1.1   970.2    0.00 
  88    2:50   0.00   58.9    41    1.5   274     3.1   970.2    0.00 
  88    3:00   0.00   58.4    43    2.0   147     3.9   970.2    0.00 
  88    3:10   0.00   58.7    40    1.5   132     4.1   970.2    0.00 
  88    3:20   0.00   58.6    42    0.9   299     2.9   970.2    0.00 
  88    3:30   0.00   57.5    45    1.5   146     2.9   970.2    0.00 
  88    3:40   0.00   58.4    47    0.6   146     1.8   970.2    0.00 
  88    3:50   0.00   58.8    46    1.3   151     2.0   970.5    0.00 
  88    4:00   0.00   59.0    44    1.2   135     1.9   970.2    0.00 
  88    4:10   0.00   59.1    44    0.3   189     1.1   970.2    0.00 
  88    4:20   0.00   59.1    44    0.3    87     2.7   970.2    0.00 
  88    4:30   0.00   58.8    46    1.4   227     2.5   970.2    0.00 
  88    4:40   0.00   58.3    46    0.9   275     2.9   970.2    0.00 
  88    4:50   0.00   56.5    50    1.9   278     3.1   970.2    0.00 
  88    5:00   0.00   54.8    54    0.4   284     1.9   970.5    0.00 
  88    5:10   0.00   55.4    51    0.9   123     1.6   970.5    0.00 
  88    5:20   0.00   55.6    50    1.3   129     2.3   970.5    0.00 
  88    5:30   0.00   55.8    50    1.7   139     2.6   970.5    0.00 
  88    5:40   0.00   56.6    50    2.8   135     4.2   970.5    0.00 
  88    5:50   0.00   57.2    47    3.4   125     5.9   970.5    0.00 
  88    6:00   0.01   59.4    43    2.1   165     4.4   970.5    0.00 
  88    6:10   0.01   61.6    41    2.4   328     6.4   970.5    0.00 
  88    6:20   0.02   60.4    43    1.7   272     4.1   970.9    0.00 
  88    6:30   0.03   58.0    49    1.5   166     4.5   971.2    0.00 
  88    6:40   0.03   56.0    52    2.1   164     4.4   971.2    0.00 
  88    6:50   0.09   59.3    46    1.0   270     2.2   971.2    0.00 
  88    7:00   0.18   64.8    40    1.1   286     3.7   970.9    0.00 
  88    7:10   0.22   68.0    36    2.0   287     4.2   971.2    0.00 
  88    7:20   0.17   65.9    42    1.4   118     3.4   971.2    0.00 
  88    7:30   0.22   61.3    47    2.0   259     3.4   971.2    0.00 
  88    7:40   0.29   61.9    48    0.8   171     2.2   970.9    0.00 
  88    7:50   0.32   66.7    44    0.8    70     3.7   970.9    0.00 
  88    8:00   0.37   66.9    43    1.0    51     2.6   970.9    0.00 
  88    8:10   0.39   68.1    41    1.4   278     3.1   970.9    0.00 
  88    8:20   0.42   66.6    44    2.5   296     4.2   970.9    0.00 
  88    8:30   0.50   66.8    44    1.4   348     2.8   971.2    0.00 
  88    8:40   0.55   68.0    42    1.1   310     3.4   971.2    0.00 
  88    8:50   0.59   67.3    40    1.6   344     3.6   971.2    0.00 
  88    9:00   0.47   68.6    40    1.4   351     3.0   971.2    0.00 
  88    9:10   0.43   70.1    39    0.7   315     2.3   971.2    0.00 
  88    9:20   0.64   70.8    39    0.8    48     2.5   970.9    0.00 
  88    9:30   0.68   73.0    37    4.2   286     7.2   970.9    0.00 
  88    9:40   0.71   74.7    34    3.0   287     6.1   970.9    0.00 
  88    9:50   0.73   76.2    33    2.9   288     6.0   970.9    0.00 
  88   10:00   0.75   77.3    32    3.0   286     5.9   970.9    0.00 
  88   10:10   0.77   77.4    32    2.0   290     3.9   970.9    0.00 
  88   10:20   0.79   78.0    32    3.3   291     5.7   970.9    0.00 
  88   10:30   0.81   79.2    30    3.6   322     6.3   970.9    0.00 
  88   10:40   0.82   80.2    29    2.6   340     6.6   970.9    0.00 
  88   10:50   0.84   81.6    26    2.9   339     6.9   970.9    0.00 
  88   11:00   0.85   82.5    20    4.7   359    13.2   970.9    0.00 
  88   11:10   0.86   83.6    16    5.2    13    12.4   970.9    0.00 
  88   11:20   0.87   84.5    15    3.9     1    11.8   970.9    0.00 
  88   11:30   0.88   84.2    15    7.1    64    12.9   970.9    0.00 
  88   11:40   0.88   83.2    16    6.8    72    11.9   970.5    0.00 
  88   11:50   0.89   84.0    15    4.0    44     8.5   970.5    0.00 
  88   12:00   0.89   85.2    19    3.1   357     7.7   970.5    0.00 
  88   12:10   0.89   84.8    19    3.7    30     9.7   970.5    0.00 
  88   12:20   0.89   83.6    16    6.2   153    12.8   970.5    0.00 
  88   12:30   0.89   83.1    17    6.2   156    14.0   970.2    0.00 
  88   12:40   0.88   82.2    17    9.2   154    14.8   970.2    0.00 
  88   12:50   0.88   81.8    18    8.8   153    14.8   969.9    0.00 
  88   13:00   0.87   80.9    18   11.3   147    15.2   969.9    0.00 
  88   13:10   0.81   80.8    17    8.1   154    14.0   969.5    0.00 
  88   13:20   0.85   82.3    14    6.7   160    11.0   969.5    0.00 
  88   13:30   0.83   82.6    18    3.1   218     7.7   969.5    0.00 
  88   13:40   0.82   84.2    15    3.2   170     7.3   969.5    0.00 
  88   13:50   0.80   84.3    13    3.1   165     7.6   969.5    0.00 
  88   14:00   0.78   84.9    11    2.8   136     7.2   969.5    0.00 
  88   14:10   0.75   84.4    11    2.1   153     5.7   969.5    0.00 
  88   14:20   0.76   84.8    20    2.2   291     5.6   969.2    0.00 
  88   14:30   0.43   82.7    23    3.5   281     6.4   969.2    0.00 
  88   14:40   0.25   81.2    27    2.8   275     5.6   969.2    0.00 
  88   14:50   0.40   78.7    28    3.0   279     5.3   968.8    0.00 
  88   15:00   0.44   79.0    29    3.3   290     6.4   968.8    0.00 
  88   15:10   0.56   79.7    30    3.6   288     6.5   968.5    0.00 
  88   15:20   0.58   80.9    29    2.9   289     6.4   968.8    0.00 
  88   15:30   0.54   80.1    30    2.4   303     5.5   968.8    0.00 
  88   15:40   0.50   79.7    30    3.2   311     6.2   968.8    0.00 
  88   15:50   0.46   80.6    29    2.1   306     5.8   968.8    0.00 
  88   16:00   0.43   80.5    30    2.7   293     6.6   968.8    0.00 
  88   16:10   0.39   80.0    29    1.9   302     5.4   968.8    0.00 
  88   16:20   0.36   79.6    28    2.1   308     5.1   968.8    0.00 
  88   16:30   0.33   79.8    24    2.1   317     4.9   968.8    0.00 
  88   16:40   0.29   78.5    24    0.7   340     3.3   968.5    0.00 
  88   16:50   0.26   78.8    21    1.6   290     3.7   968.5    0.00 
  88   17:00   0.22   79.2    20    1.1   295     5.3   968.5    0.00 
  88   17:10   0.19   77.7    20    1.0   316     3.1   968.5    0.00 
  88   17:20   0.15   77.0    23    0.8   288     2.9   968.2    0.00 
  88   17:30   0.12   75.3    26    0.9   257     2.0   968.2    0.00 
  88   17:40   0.10   73.7    27    0.0   190     0.1   968.2    0.00 
  88   17:50   0.07   72.1    29    0.9   275     2.2   968.2    0.00 
  88   18:00   0.02   70.7    31    0.4   235     1.4   968.2    0.00 
  88   18:10   0.01   69.7    31    1.4   288     3.5   968.2    0.00 
  88   18:20   0.01   67.7    35    2.4   257     4.2   968.5    0.00 
  88   18:30   0.00   66.8    34    0.7   139     2.4   968.8    0.00 
  88   18:40   0.00   66.2    34    0.9   104     2.5   969.2    0.00 
  88   18:50   0.00   66.7    34    1.6   269     2.7   969.2    0.00 
  88   19:00   0.00   66.5    40    1.4   251     2.7   969.2    0.00 
  88   19:10   0.00   65.8    44    1.5   224     3.4   969.5    0.00 
  88   19:20   0.00   64.5    46    0.4   276     2.1   969.5    0.00 
  88   19:30   0.00   64.9    46    1.4   265     2.0   969.5    0.00 
  88   19:40   0.00   64.2    47    1.5   249     2.0   969.5    0.00 
  88   19:50   0.00   63.5    48    2.0   194     3.1   969.9    0.00 
  88   20:00   0.00   62.7    49    2.1   176     4.1   969.9    0.00 
  88   20:10   0.00   63.0    49    2.3   226     4.2   969.9    0.00 
  88   20:20   0.00   63.5    49    1.1   265     1.7   969.9    0.00 
  88   20:30   0.00   63.4    49    1.6   208     3.7   970.2    0.00 
  88   20:40   0.00   63.4    49    1.6   235     3.1   970.2    0.00 
  88   20:50   0.00   63.3    49    0.8   255     3.1   970.2    0.00 
  88   21:00   0.00   62.4    51    1.9   241     3.1   970.2    0.00 
  88   21:10   0.00   61.9    51    1.1   263     1.9   970.2    0.00 
  88   21:20   0.00   61.6    51    0.2   157     1.5   970.2    0.00 
  88   21:30   0.00   61.4    52    1.4   134     2.4   970.2    0.00 
  88   21:40   0.00   61.3    51    1.2   114     1.8   970.2    0.00 
  88   21:50   0.00   61.4    51    0.7   103     1.8   970.2    0.00 
  88   22:00   0.00   61.2    51    0.7   106     2.0   970.2    0.00 
  88   22:10   0.00   61.0    51    0.6    92     1.8   970.2    0.00 
  88   22:20   0.00   60.7    51    0.9   156     3.1   970.2    0.00 
  88   22:30   0.00   60.4    50    1.7   114     3.3   970.2    0.00 
  88   22:40   0.00   61.1    48    0.5   169     1.8   970.2    0.00 
  88   22:50   0.00   60.8    48    0.3   259     1.2   970.2    0.00 
  88   23:00   0.00   60.3    48    0.4   227     1.0   970.2    0.00 
  88   23:10   0.00   60.0    49    0.9   258     1.9   970.2    0.00 
  88   23:20   0.00   60.0    48    0.7   262     1.5   970.2    0.00 
  88   23:30   0.00   60.5    48    0.5   168     1.8   970.2    0.00 
  88   23:40   0.00   61.1    47    0.6   287     1.8   970.2    0.00 
  88   23:50   0.00   60.4    48    2.3   261     4.8   970.2    0.00 
  89    0:00   0.00   58.4    49    0.7   242     2.0   970.2    0.00 
  89    0:10   0.00   58.4    49    0.4    43     1.5   970.2    0.00 
  89    0:20   0.00   58.8    46    0.2    87     1.5   969.9    0.00 
  89    0:30   0.00   58.3    46    0.7   157     2.0   969.9    0.00 
  89    0:40   0.00   58.9    43    1.2   246     2.3   969.9    0.00 
  89    0:50   0.00   58.9    44    0.6    47     1.9   969.9    0.00 
  89    1:00   0.00   59.0    43    0.7   123     1.7   969.9    0.00 
  89    1:10   0.00   59.3    43    0.1   152     0.9   969.5    0.00 
  89    1:20   0.00   59.1    41    0.7   192     2.0   969.5    0.00 
  89    1:30   0.00   58.3    45    1.0   256     2.4   969.5    0.00 
  89    1:40   0.00   57.4    44    0.9   113     2.5   969.5    0.00 
  89    1:50   0.00   57.4    42    0.2   287     1.2   969.5    0.00 
  89    2:00   0.00   58.0    44    0.3   288     1.3   969.2    0.00 

Return to Stunt Ranch Reserve graphs page.


Western Regional Climate Center,wrcc@dri.edu